Terminal Aerodrome Forecast
Issued by NWS Wilmington, OH

Current Version | Previous Version | Graphics & Text | Print | Product List | Glossary On
Versions: 1 2 3 4 5 6 7 8 9 10 11 12 13 14 15 16 17 18 19 20
000
FTUS41 KILN 170200 AAA
TAFILN
TAF AMD
KILN 170231Z 1703/1724 26005KT 6SM BR VCSH BKN025
      TEMPO 1703/1705 2SM -SHRA BKN015
     FM170700 26005KT 4SM BR BKN012
     FM171000 28004KT 2SM BR SCT007 BKN012
     FM171300 33006KT P6SM BKN025
     FM171500 35006KT P6SM SKC=

USA.gov is the U.S. government's official web portal to all federal, state and local government web resources and services.